KITH/ITH METAR and TAF weather

Enter ICAO airport designator
Station Type Date Time Source
KITH METAR 2023/01/30 10:56 UTC NOAA

KITH 301056Z 35004KT 10SM OVC010 M03/M04 A3018 RMK AO2 SLP232 T10281044


Station Type Date Time Source
KITH Decoded METAR 2023/01/30 10:56 UTC NOAA

Ithaca, Ithaca Tompkins Regional Airport, NY, United States (KITH) 42-29-27N 076-27-30W
Jan 30, 2023 - 05:56 AM EST / 2023.01.30 1056 UTC
Wind: from the N (350 degrees) at 5 MPH (4 KT):0
Visibility: 10 mile(s):0
Sky conditions: overcast
Temperature: 27.0 F (-2.8 C)
Windchill: 21 F (-6 C):1
Dew Point: 24.1 F (-4.4 C)
Relative Humidity: 88%
Pressure (altimeter): 30.18 in. Hg (1022 hPa)
ob: KITH 301056Z 35004KT 10SM OVC010 M03/M04 A3018 RMK AO2 SLP232 T10281044
cycle: 11

Station Type Date Time Source
KITH TAF 2023/01/30 10:06 UTC NOAA

TAF
AMD KITH 301004Z 3010/3106 VRB04KT P6SM OVC009
TEMPO 3010/3014 OVC012
FM301500 VRB03KT 5SM -SHSN BR OVC006
FM302000 VRB03KT 2SM -SHSN BR OVC005
FM310000 31006KT 3SM -SHSN BR OVC007

Example: see airport list